Devon fishing times and tide table for the week

Current weather in Devon

Weather

Cloudy
Cloud cover 84%

Temperature

11°C
Minimum 9°C
Maximum 16°C

Wind

11 km/h
Wind gust 21 km/h

Humidity

73%
Dew point 6°C
Temp Feels Precip Humidity
00:00am Partly cloudy 9°C 8°C 0 mm 88%
03:00am Partly cloudy 14°C 8°C 0 mm 89%
06:00am Partly cloudy 14°C 9°C 0 mm 86%
09:00am Partly cloudy 14°C 14°C 0 mm 75%
12:00pm Partly cloudy 16°C 16°C 0 mm 64%
15:00pm Sunny 16°C 16°C 0 mm 64%
18:00pm Partly cloudy 14°C 13°C 0 mm 70%
21:00pm Cloudy 11°C 9°C 0 mm 73%
Temp Feels Precip Humidity
00:00am Cloudy 10°C 9°C 0 mm 69%
03:00am Partly cloudy 9°C 9°C 0 mm 76%
06:00am Partly cloudy 12°C 12°C 0 mm 80%
09:00am Cloudy 14°C 14°C 0 mm 78%
12:00pm Partly cloudy 16°C 16°C 0 mm 70%
15:00pm Cloudy 13°C 12°C 0 mm 79%
18:00pm Overcast 13°C 12°C 0 mm 91%
21:00pm Partly cloudy 13°C 11°C 0 mm 92%
Temp Feels Precip Humidity
00:00am Overcast 13°C 11°C 0 mm 90%
03:00am Light rain shower 13°C 11°C 0.2 mm 92%
06:00am Partly cloudy 14°C 11°C 0 mm 88%
09:00am Patchy rain possible 13°C 11°C 0.1 mm 81%
12:00pm Cloudy 15°C 15°C 0 mm 74%
15:00pm Cloudy 16°C 16°C 0 mm 72%
18:00pm Partly cloudy 14°C 12°C 0 mm 78%
21:00pm Partly cloudy 12°C 11°C 0 mm 83%
Temp Feels Precip Humidity
00:00am Overcast 12°C 11°C 0 mm 89%
03:00am Patchy rain possible 16°C 11°C 0.1 mm 93%
06:00am Patchy rain possible 17°C 13°C 0.1 mm 93%
09:00am Patchy rain possible 16°C 16°C 0.1 mm 83%
12:00pm Light rain shower 18°C 18°C 0.2 mm 73%
15:00pm Patchy rain possible 18°C 18°C 0.1 mm 72%
18:00pm Partly cloudy 17°C 17°C 0 mm 78%
21:00pm Partly cloudy 12°C 11°C 0 mm 91%
Temp Feels Precip Humidity
00:00am Cloudy 11°C 9°C 0 mm 88%
03:00am Cloudy 16°C 12°C 0 mm 89%
06:00am Overcast 15°C 13°C 0 mm 92%
09:00am Overcast 16°C 16°C 0 mm 85%
12:00pm Overcast 16°C 16°C 0 mm 87%
15:00pm Patchy rain possible 16°C 16°C 0.1 mm 90%
18:00pm Overcast 15°C 15°C 0 mm 89%
21:00pm Patchy rain possible 13°C 12°C 0.1 mm 90%
Temp Feels Precip Humidity
00:00am Light drizzle 12°C 11°C 0.2 mm 92%
03:00am Light rain 13°C 11°C 1.3 mm 94%
06:00am Moderate rain 13°C 11°C 2.8 mm 95%
09:00am Light rain 13°C 12°C 2.1 mm 96%
12:00pm Moderate rain 14°C 13°C 2.7 mm 94%
15:00pm Light drizzle 15°C 15°C 0.6 mm 90%
18:00pm Light drizzle 13°C 11°C 0.4 mm 91%
21:00pm Light rain 12°C 9°C 2.4 mm 92%
Temp Feels Precip Humidity
00:00am Moderate rain 11°C 9°C 3.8 mm 90%
03:00am Patchy rain possible 14°C 8°C 0.1 mm 90%
06:00am Patchy rain possible 14°C 9°C 0.1 mm 89%
09:00am Partly cloudy 14°C 12°C 0 mm 74%
12:00pm Cloudy 16°C 16°C 0 mm 67%
15:00pm Patchy rain possible 16°C 16°C 0.2 mm 67%
18:00pm Patchy rain possible 14°C 13°C 0.3 mm 73%
21:00pm Partly cloudy 11°C 8°C 0 mm 87%

Save your favorite locations, unlock more tidal information, less advertising and more...

Sign in to Tideschart with your Facebook account in one easy click (it's FREE!)